sensor_id;sensor_type;location;lat;lon;timestamp;P1;durP1;ratioP1;P2;durP2;ratioP2
27895;SDS011;15241;48.374;10.876;2022-07-22T00:00:16;11.60;;;10.35;;
27895;SDS011;15241;48.374;10.876;2022-07-22T00:05:15;11.83;;;10.23;;
27895;SDS011;15241;48.374;10.876;2022-07-22T00:10:14;11.50;;;10.25;;
27895;SDS011;15241;48.374;10.876;2022-07-22T00:15:13;13.32;;;11.38;;
27895;SDS011;15241;48.374;10.876;2022-07-22T00:20:12;11.40;;;9.80;;
27895;SDS011;15241;48.374;10.876;2022-07-22T00:25:11;12.43;;;10.35;;
27895;SDS011;15241;48.374;10.876;2022-07-22T00:30:11;12.15;;;10.25;;
27895;SDS011;15241;48.374;10.876;2022-07-22T00:35:10;12.90;;;9.25;;
27895;SDS011;15241;48.374;10.876;2022-07-22T00:40:11;10.98;;;9.90;;
27895;SDS011;15241;48.374;10.876;2022-07-22T00:45:10;10.38;;;9.30;;
27895;SDS011;15241;48.374;10.876;2022-07-22T00:50:09;9.90;;;8.90;;
27895;SDS011;15241;48.374;10.876;2022-07-22T00:55:09;11.38;;;9.78;;
27895;SDS011;15241;48.374;10.876;2022-07-22T01:00:10;10.68;;;9.58;;
27895;SDS011;15241;48.374;10.876;2022-07-22T01:05:11;11.38;;;9.75;;
27895;SDS011;15241;48.374;10.876;2022-07-22T01:10:11;12.70;;;9.58;;
27895;SDS011;15241;48.374;10.876;2022-07-22T01:15:10;10.70;;;9.50;;
27895;SDS011;15241;48.374;10.876;2022-07-22T01:20:10;11.12;;;9.98;;
27895;SDS011;15241;48.374;10.876;2022-07-22T01:25:09;11.60;;;10.40;;
27895;SDS011;15241;48.374;10.876;2022-07-22T01:30:09;14.90;;;10.40;;
27895;SDS011;15241;48.374;10.876;2022-07-22T01:35:09;11.00;;;9.73;;
27895;SDS011;15241;48.374;10.876;2022-07-22T01:40:10;12.23;;;10.15;;
27895;SDS011;15241;48.374;10.876;2022-07-22T01:45:10;10.85;;;9.85;;
27895;SDS011;15241;48.374;10.876;2022-07-22T01:50:09;12.50;;;9.88;;
27895;SDS011;15241;48.374;10.876;2022-07-22T01:55:09;11.38;;;10.28;;
27895;SDS011;15241;48.374;10.876;2022-07-22T02:00:09;12.28;;;9.65;;
27895;SDS011;15241;48.374;10.876;2022-07-22T02:05:10;10.15;;;9.05;;
27895;SDS011;15241;48.374;10.876;2022-07-22T02:10:09;11.20;;;10.00;;
27895;SDS011;15241;48.374;10.876;2022-07-22T02:15:09;13.08;;;10.18;;
27895;SDS011;15241;48.374;10.876;2022-07-22T02:20:09;11.75;;;10.15;;
27895;SDS011;15241;48.374;10.876;2022-07-22T02:25:08;12.25;;;9.78;;
27895;SDS011;15241;48.374;10.876;2022-07-22T02:30:09;12.58;;;10.90;;
27895;SDS011;15241;48.374;10.876;2022-07-22T02:35:08;11.48;;;10.28;;
27895;SDS011;15241;48.374;10.876;2022-07-22T02:40:08;12.03;;;10.70;;
27895;SDS011;15241;48.374;10.876;2022-07-22T02:45:08;10.98;;;9.75;;
27895;SDS011;15241;48.374;10.876;2022-07-22T02:50:09;13.22;;;11.20;;
27895;SDS011;15241;48.374;10.876;2022-07-22T02:55:08;11.93;;;10.58;;
27895;SDS011;15241;48.374;10.876;2022-07-22T03:00:08;13.50;;;10.50;;
27895;SDS011;15241;48.374;10.876;2022-07-22T03:05:09;11.48;;;10.30;;
27895;SDS011;15241;48.374;10.876;2022-07-22T03:10:08;12.95;;;11.48;;
27895;SDS011;15241;48.374;10.876;2022-07-22T03:15:07;11.68;;;10.48;;
27895;SDS011;15241;48.374;10.876;2022-07-22T03:20:09;11.53;;;10.32;;
27895;SDS011;15241;48.374;10.876;2022-07-22T03:25:10;15.05;;;11.15;;
27895;SDS011;15241;48.374;10.876;2022-07-22T03:30:10;12.00;;;10.60;;
27895;SDS011;15241;48.374;10.876;2022-07-22T03:35:10;12.98;;;11.08;;
27895;SDS011;15241;48.374;10.876;2022-07-22T03:40:10;16.00;;;10.95;;
27895;SDS011;15241;48.374;10.876;2022-07-22T03:45:10;11.85;;;10.58;;
27895;SDS011;15241;48.374;10.876;2022-07-22T03:50:09;12.50;;;10.65;;
27895;SDS011;15241;48.374;10.876;2022-07-22T03:55:08;14.07;;;11.95;;
27895;SDS011;15241;48.374;10.876;2022-07-22T04:00:08;15.45;;;11.93;;
27895;SDS011;15241;48.374;10.876;2022-07-22T04:05:08;13.48;;;12.07;;
27895;SDS011;15241;48.374;10.876;2022-07-22T04:10:08;15.40;;;11.65;;
27895;SDS011;15241;48.374;10.876;2022-07-22T04:15:09;13.38;;;11.83;;
27895;SDS011;15241;48.374;10.876;2022-07-22T04:20:09;13.72;;;12.05;;
27895;SDS011;15241;48.374;10.876;2022-07-22T04:25:09;18.25;;;13.28;;
27895;SDS011;15241;48.374;10.876;2022-07-22T04:30:09;15.98;;;12.18;;
27895;SDS011;15241;48.374;10.876;2022-07-22T04:35:09;15.53;;;13.58;;
27895;SDS011;15241;48.374;10.876;2022-07-22T04:40:09;16.57;;;14.75;;
27895;SDS011;15241;48.374;10.876;2022-07-22T04:45:12;15.95;;;14.20;;
27895;SDS011;15241;48.374;10.876;2022-07-22T04:50:11;19.77;;;15.65;;
27895;SDS011;15241;48.374;10.876;2022-07-22T04:55:10;17.73;;;15.28;;
27895;SDS011;15241;48.374;10.876;2022-07-22T05:00:10;20.48;;;14.80;;
27895;SDS011;15241;48.374;10.876;2022-07-22T05:05:11;17.82;;;14.00;;
27895;SDS011;15241;48.374;10.876;2022-07-22T05:10:10;18.12;;;14.83;;
27895;SDS011;15241;48.374;10.876;2022-07-22T05:15:09;17.48;;;15.15;;
27895;SDS011;15241;48.374;10.876;2022-07-22T05:20:09;19.05;;;15.55;;
27895;SDS011;15241;48.374;10.876;2022-07-22T05:25:09;21.27;;;15.85;;
27895;SDS011;15241;48.374;10.876;2022-07-22T05:30:10;20.80;;;15.32;;
27895;SDS011;15241;48.374;10.876;2022-07-22T05:35:10;19.12;;;15.55;;
27895;SDS011;15241;48.374;10.876;2022-07-22T05:40:10;19.35;;;15.20;;
27895;SDS011;15241;48.374;10.876;2022-07-22T05:45:09;18.45;;;14.78;;
27895;SDS011;15241;48.374;10.876;2022-07-22T05:50:09;19.65;;;16.90;;
27895;SDS011;15241;48.374;10.876;2022-07-22T05:55:08;18.05;;;15.53;;
27895;SDS011;15241;48.374;10.876;2022-07-22T06:00:09;21.82;;;15.25;;
27895;SDS011;15241;48.374;10.876;2022-07-22T06:05:09;21.35;;;14.40;;
27895;SDS011;15241;48.374;10.876;2022-07-22T06:10:09;18.15;;;15.15;;
27895;SDS011;15241;48.374;10.876;2022-07-22T06:15:08;25.10;;;15.63;;
27895;SDS011;15241;48.374;10.876;2022-07-22T06:20:10;24.63;;;15.43;;
27895;SDS011;15241;48.374;10.876;2022-07-22T06:25:09;18.77;;;15.78;;
27895;SDS011;15241;48.374;10.876;2022-07-22T06:30:10;18.30;;;15.55;;
27895;SDS011;15241;48.374;10.876;2022-07-22T06:35:10;16.93;;;14.38;;
27895;SDS011;15241;48.374;10.876;2022-07-22T06:40:11;14.58;;;12.75;;
27895;SDS011;15241;48.374;10.876;2022-07-22T06:45:10;15.43;;;13.83;;
27895;SDS011;15241;48.374;10.876;2022-07-22T06:50:10;15.53;;;13.93;;
27895;SDS011;15241;48.374;10.876;2022-07-22T06:55:10;16.52;;;14.80;;
27895;SDS011;15241;48.374;10.876;2022-07-22T07:00:10;16.07;;;14.10;;
27895;SDS011;15241;48.374;10.876;2022-07-22T07:05:11;15.65;;;12.85;;
27895;SDS011;15241;48.374;10.876;2022-07-22T07:10:10;17.20;;;13.75;;
27895;SDS011;15241;48.374;10.876;2022-07-22T07:15:09;15.55;;;13.05;;
27895;SDS011;15241;48.374;10.876;2022-07-22T07:20:09;14.78;;;12.68;;
27895;SDS011;15241;48.374;10.876;2022-07-22T07:25:10;16.93;;;13.10;;
27895;SDS011;15241;48.374;10.876;2022-07-22T07:30:11;17.10;;;13.25;;
27895;SDS011;15241;48.374;10.876;2022-07-22T07:35:10;15.43;;;12.88;;
27895;SDS011;15241;48.374;10.876;2022-07-22T07:40:10;17.52;;;14.53;;
27895;SDS011;15241;48.374;10.876;2022-07-22T07:45:09;14.07;;;12.68;;
27895;SDS011;15241;48.374;10.876;2022-07-22T07:50:09;16.15;;;12.75;;
27895;SDS011;15241;48.374;10.876;2022-07-22T07:55:09;20.05;;;17.60;;
27895;SDS011;15241;48.374;10.876;2022-07-22T08:00:09;14.87;;;13.25;;
27895;SDS011;15241;48.374;10.876;2022-07-22T08:05:09;15.48;;;10.35;;
27895;SDS011;15241;48.374;10.876;2022-07-22T08:10:09;10.95;;;9.95;;
27895;SDS011;15241;48.374;10.876;2022-07-22T08:15:09;12.85;;;10.35;;
27895;SDS011;15241;48.374;10.876;2022-07-22T08:20:08;10.90;;;9.90;;
27895;SDS011;15241;48.374;10.876;2022-07-22T08:25:07;10.82;;;9.58;;
27895;SDS011;15241;48.374;10.876;2022-07-22T08:30:07;10.40;;;9.40;;
27895;SDS011;15241;48.374;10.876;2022-07-22T08:35:07;13.13;;;11.03;;
27895;SDS011;15241;48.374;10.876;2022-07-22T08:40:07;11.95;;;10.75;;
27895;SDS011;15241;48.374;10.876;2022-07-22T08:45:08;14.33;;;12.30;;
27895;SDS011;15241;48.374;10.876;2022-07-22T08:50:07;11.60;;;10.40;;
27895;SDS011;15241;48.374;10.876;2022-07-22T08:55:07;10.00;;;9.05;;
27895;SDS011;15241;48.374;10.876;2022-07-22T09:00:10;11.97;;;10.58;;
27895;SDS011;15241;48.374;10.876;2022-07-22T09:05:12;13.58;;;12.18;;
27895;SDS011;15241;48.374;10.876;2022-07-22T09:10:13;22.15;;;12.43;;
27895;SDS011;15241;48.374;10.876;2022-07-22T09:15:14;11.33;;;9.28;;
27895;SDS011;15241;48.374;10.876;2022-07-22T09:20:15;9.73;;;8.83;;
27895;SDS011;15241;48.374;10.876;2022-07-22T09:25:20;12.73;;;10.10;;
27895;SDS011;15241;48.374;10.876;2022-07-22T09:30:21;10.80;;;9.70;;
27895;SDS011;15241;48.374;10.876;2022-07-22T09:35:21;12.33;;;9.80;;
27895;SDS011;15241;48.374;10.876;2022-07-22T09:40:22;10.93;;;9.83;;
27895;SDS011;15241;48.374;10.876;2022-07-22T09:45:23;11.63;;;10.50;;
27895;SDS011;15241;48.374;10.876;2022-07-22T09:50:25;10.03;;;9.00;;
27895;SDS011;15241;48.374;10.876;2022-07-22T09:55:26;10.72;;;9.10;;
27895;SDS011;15241;48.374;10.876;2022-07-22T10:00:26;9.50;;;8.65;;
27895;SDS011;15241;48.374;10.876;2022-07-22T10:05:29;10.15;;;9.05;;
27895;SDS011;15241;48.374;10.876;2022-07-22T10:10:27;10.18;;;9.13;;
27895;SDS011;15241;48.374;10.876;2022-07-22T10:15:28;11.12;;;9.93;;
27895;SDS011;15241;48.374;10.876;2022-07-22T10:20:28;9.43;;;8.53;;
27895;SDS011;15241;48.374;10.876;2022-07-22T10:25:28;9.65;;;8.75;;
27895;SDS011;15241;48.374;10.876;2022-07-22T10:30:29;11.90;;;9.10;;
27895;SDS011;15241;48.374;10.876;2022-07-22T10:35:30;10.80;;;9.00;;
27895;SDS011;15241;48.374;10.876;2022-07-22T10:40:30;8.70;;;7.60;;
27895;SDS011;15241;48.374;10.876;2022-07-22T10:45:32;8.53;;;7.80;;
27895;SDS011;15241;48.374;10.876;2022-07-22T10:50:38;8.43;;;7.07;;
27895;SDS011;15241;48.374;10.876;2022-07-22T10:55:39;7.62;;;6.92;;
27895;SDS011;15241;48.374;10.876;2022-07-22T11:00:56;8.40;;;7.58;;
27895;SDS011;15241;48.374;10.876;2022-07-22T11:05:57;8.60;;;7.90;;
27895;SDS011;15241;48.374;10.876;2022-07-22T11:10:59;10.53;;;7.67;;
27895;SDS011;15241;48.374;10.876;2022-07-22T11:16:13;8.10;;;7.45;;
27895;SDS011;15241;48.374;10.876;2022-07-22T11:21:14;9.30;;;7.62;;
27895;SDS011;15241;48.374;10.876;2022-07-22T11:26:14;8.70;;;7.53;;
27895;SDS011;15241;48.374;10.876;2022-07-22T11:31:15;7.87;;;7.08;;
27895;SDS011;15241;48.374;10.876;2022-07-22T11:36:15;8.28;;;7.42;;
27895;SDS011;15241;48.374;10.876;2022-07-22T11:41:15;9.78;;;6.78;;
27895;SDS011;15241;48.374;10.876;2022-07-22T11:46:15;10.25;;;6.58;;
27895;SDS011;15241;48.374;10.876;2022-07-22T11:51:15;7.28;;;6.58;;
27895;SDS011;15241;48.374;10.876;2022-07-22T11:56:15;7.85;;;6.37;;
27895;SDS011;15241;48.374;10.876;2022-07-22T12:01:14;7.17;;;6.03;;
27895;SDS011;15241;48.374;10.876;2022-07-22T12:06:15;6.97;;;6.28;;
27895;SDS011;15241;48.374;10.876;2022-07-22T12:11:16;6.47;;;5.97;;
27895;SDS011;15241;48.374;10.876;2022-07-22T12:16:18;6.80;;;6.08;;
27895;SDS011;15241;48.374;10.876;2022-07-22T12:21:22;6.25;;;5.75;;
27895;SDS011;15241;48.374;10.876;2022-07-22T12:26:36;6.85;;;5.87;;
27895;SDS011;15241;48.374;10.876;2022-07-22T12:31:44;8.15;;;5.90;;
27895;SDS011;15241;48.374;10.876;2022-07-22T12:36:48;6.15;;;5.47;;
27895;SDS011;15241;48.374;10.876;2022-07-22T12:41:48;6.85;;;6.25;;
27895;SDS011;15241;48.374;10.876;2022-07-22T12:46:49;6.72;;;5.53;;
27895;SDS011;15241;48.374;10.876;2022-07-22T12:52:09;6.55;;;5.97;;
27895;SDS011;15241;48.374;10.876;2022-07-22T12:57:09;9.73;;;6.20;;
27895;SDS011;15241;48.374;10.876;2022-07-22T13:02:08;8.33;;;6.45;;
27895;SDS011;15241;48.374;10.876;2022-07-22T13:07:07;6.80;;;6.20;;
27895;SDS011;15241;48.374;10.876;2022-07-22T13:12:06;6.72;;;6.12;;
27895;SDS011;15241;48.374;10.876;2022-07-22T13:17:05;6.42;;;5.83;;
27895;SDS011;15241;48.374;10.876;2022-07-22T13:22:04;6.10;;;5.60;;
27895;SDS011;15241;48.374;10.876;2022-07-22T13:27:03;6.03;;;5.45;;
27895;SDS011;15241;48.374;10.876;2022-07-22T13:32:02;5.70;;;5.30;;
27895;SDS011;15241;48.374;10.876;2022-07-22T13:37:02;7.22;;;6.28;;
27895;SDS011;15241;48.374;10.876;2022-07-22T13:42:01;8.65;;;5.62;;
27895;SDS011;15241;48.374;10.876;2022-07-22T13:47:00;7.90;;;6.10;;
27895;SDS011;15241;48.374;10.876;2022-07-22T13:52:00;8.25;;;6.45;;
27895;SDS011;15241;48.374;10.876;2022-07-22T13:56:59;6.40;;;5.90;;
27895;SDS011;15241;48.374;10.876;2022-07-22T14:01:58;7.55;;;5.95;;
27895;SDS011;15241;48.374;10.876;2022-07-22T14:06:58;6.00;;;5.37;;
27895;SDS011;15241;48.374;10.876;2022-07-22T14:11:57;6.35;;;5.85;;
27895;SDS011;15241;48.374;10.876;2022-07-22T14:16:56;6.85;;;5.70;;
27895;SDS011;15241;48.374;10.876;2022-07-22T14:21:55;7.28;;;5.80;;
27895;SDS011;15241;48.374;10.876;2022-07-22T14:26:54;5.92;;;5.42;;
27895;SDS011;15241;48.374;10.876;2022-07-22T14:31:53;6.30;;;5.80;;
27895;SDS011;15241;48.374;10.876;2022-07-22T14:36:52;6.17;;;5.67;;
27895;SDS011;15241;48.374;10.876;2022-07-22T14:41:51;6.50;;;5.90;;
27895;SDS011;15241;48.374;10.876;2022-07-22T14:46:50;6.53;;;6.00;;
27895;SDS011;15241;48.374;10.876;2022-07-22T14:51:49;6.45;;;5.58;;
27895;SDS011;15241;48.374;10.876;2022-07-22T14:56:47;6.47;;;5.80;;
27895;SDS011;15241;48.374;10.876;2022-07-22T15:01:46;6.97;;;5.62;;
27895;SDS011;15241;48.374;10.876;2022-07-22T15:06:45;5.80;;;5.08;;
27895;SDS011;15241;48.374;10.876;2022-07-22T15:11:44;5.80;;;5.30;;
27895;SDS011;15241;48.374;10.876;2022-07-22T15:16:43;6.17;;;5.30;;
27895;SDS011;15241;48.374;10.876;2022-07-22T15:21:43;6.12;;;5.62;;
27895;SDS011;15241;48.374;10.876;2022-07-22T15:26:42;6.47;;;5.28;;
27895;SDS011;15241;48.374;10.876;2022-07-22T15:31:41;8.63;;;5.53;;
27895;SDS011;15241;48.374;10.876;2022-07-22T15:36:40;10.20;;;6.08;;
27895;SDS011;15241;48.374;10.876;2022-07-22T15:41:40;6.30;;;5.70;;
27895;SDS011;15241;48.374;10.876;2022-07-22T15:46:39;6.53;;;5.90;;
27895;SDS011;15241;48.374;10.876;2022-07-22T15:51:38;7.83;;;6.10;;
27895;SDS011;15241;48.374;10.876;2022-07-22T15:56:37;9.25;;;6.08;;
27895;SDS011;15241;48.374;10.876;2022-07-22T16:01:36;6.97;;;5.53;;
27895;SDS011;15241;48.374;10.876;2022-07-22T16:06:35;7.70;;;5.40;;
27895;SDS011;15241;48.374;10.876;2022-07-22T16:11:34;8.33;;;5.83;;
27895;SDS011;15241;48.374;10.876;2022-07-22T16:16:33;6.53;;;5.92;;
27895;SDS011;15241;48.374;10.876;2022-07-22T16:21:32;9.00;;;5.40;;
27895;SDS011;15241;48.374;10.876;2022-07-22T16:26:31;23.42;;;6.00;;
27895;SDS011;15241;48.374;10.876;2022-07-22T16:31:30;5.72;;;5.22;;
27895;SDS011;15241;48.374;10.876;2022-07-22T16:36:29;7.75;;;5.50;;
27895;SDS011;15241;48.374;10.876;2022-07-22T16:41:28;7.50;;;5.60;;
27895;SDS011;15241;48.374;10.876;2022-07-22T16:46:28;5.80;;;5.22;;
27895;SDS011;15241;48.374;10.876;2022-07-22T16:51:27;8.03;;;5.30;;
27895;SDS011;15241;48.374;10.876;2022-07-22T16:56:26;8.90;;;6.20;;
27895;SDS011;15241;48.374;10.876;2022-07-22T17:01:25;6.97;;;6.37;;
27895;SDS011;15241;48.374;10.876;2022-07-22T17:06:24;6.03;;;5.28;;
27895;SDS011;15241;48.374;10.876;2022-07-22T17:11:24;5.80;;;5.30;;
27895;SDS011;15241;48.374;10.876;2022-07-22T17:16:22;6.20;;;5.60;;
27895;SDS011;15241;48.374;10.876;2022-07-22T17:21:21;8.53;;;5.90;;
27895;SDS011;15241;48.374;10.876;2022-07-22T17:26:20;8.43;;;5.75;;
27895;SDS011;15241;48.374;10.876;2022-07-22T17:31:20;6.72;;;6.03;;
27895;SDS011;15241;48.374;10.876;2022-07-22T17:36:19;7.35;;;6.28;;
27895;SDS011;15241;48.374;10.876;2022-07-22T17:41:18;7.15;;;6.35;;
27895;SDS011;15241;48.374;10.876;2022-07-22T17:46:17;10.60;;;6.08;;
27895;SDS011;15241;48.374;10.876;2022-07-22T17:56:21;8.80;;;6.45;;
27895;SDS011;15241;48.374;10.876;2022-07-22T18:01:20;7.42;;;6.72;;
27895;SDS011;15241;48.374;10.876;2022-07-22T18:06:19;8.58;;;5.97;;
27895;SDS011;15241;48.374;10.876;2022-07-22T18:11:18;6.60;;;5.53;;
27895;SDS011;15241;48.374;10.876;2022-07-22T18:16:17;6.92;;;6.22;;
27895;SDS011;15241;48.374;10.876;2022-07-22T18:21:16;7.28;;;5.92;;
27895;SDS011;15241;48.374;10.876;2022-07-22T18:26:15;11.63;;;6.25;;
27895;SDS011;15241;48.374;10.876;2022-07-22T18:31:14;12.35;;;6.80;;
27895;SDS011;15241;48.374;10.876;2022-07-22T18:36:13;8.28;;;6.08;;
27895;SDS011;15241;48.374;10.876;2022-07-22T18:41:12;7.65;;;5.85;;
27895;SDS011;15241;48.374;10.876;2022-07-22T18:46:11;6.72;;;6.00;;
27895;SDS011;15241;48.374;10.876;2022-07-22T18:51:10;8.85;;;7.62;;
27895;SDS011;15241;48.374;10.876;2022-07-22T18:56:09;8.33;;;6.30;;
27895;SDS011;15241;48.374;10.876;2022-07-22T19:01:08;9.13;;;7.10;;
27895;SDS011;15241;48.374;10.876;2022-07-22T19:06:08;7.78;;;7.08;;
27895;SDS011;15241;48.374;10.876;2022-07-22T19:11:07;8.40;;;7.60;;
27895;SDS011;15241;48.374;10.876;2022-07-22T19:16:07;12.65;;;7.87;;
27895;SDS011;15241;48.374;10.876;2022-07-22T19:21:06;10.58;;;7.70;;
27895;SDS011;15241;48.374;10.876;2022-07-22T19:26:05;9.98;;;7.22;;
27895;SDS011;15241;48.374;10.876;2022-07-22T19:31:04;11.12;;;7.22;;
27895;SDS011;15241;48.374;10.876;2022-07-22T19:36:03;8.55;;;7.58;;
27895;SDS011;15241;48.374;10.876;2022-07-22T19:41:05;9.45;;;7.92;;
27895;SDS011;15241;48.374;10.876;2022-07-22T19:46:04;11.53;;;7.50;;
27895;SDS011;15241;48.374;10.876;2022-07-22T19:51:03;12.93;;;7.72;;
27895;SDS011;15241;48.374;10.876;2022-07-22T19:56:03;11.18;;;8.33;;
27895;SDS011;15241;48.374;10.876;2022-07-22T20:01:02;10.00;;;7.67;;
27895;SDS011;15241;48.374;10.876;2022-07-22T20:06:02;9.53;;;8.05;;
27895;SDS011;15241;48.374;10.876;2022-07-22T20:11:01;9.53;;;8.38;;
27895;SDS011;15241;48.374;10.876;2022-07-22T20:16:01;11.05;;;9.05;;
27895;SDS011;15241;48.374;10.876;2022-07-22T20:21:00;10.53;;;9.43;;
27895;SDS011;15241;48.374;10.876;2022-07-22T20:25:59;12.53;;;9.73;;
27895;SDS011;15241;48.374;10.876;2022-07-22T20:30:59;11.10;;;8.90;;
27895;SDS011;15241;48.374;10.876;2022-07-22T20:35:58;12.40;;;9.38;;
27895;SDS011;15241;48.374;10.876;2022-07-22T20:40:56;11.55;;;9.70;;
27895;SDS011;15241;48.374;10.876;2022-07-22T20:45:55;12.03;;;9.30;;
27895;SDS011;15241;48.374;10.876;2022-07-22T20:50:54;12.43;;;8.55;;
27895;SDS011;15241;48.374;10.876;2022-07-22T20:55:53;11.28;;;9.15;;
27895;SDS011;15241;48.374;10.876;2022-07-22T21:00:52;12.30;;;9.48;;
27895;SDS011;15241;48.374;10.876;2022-07-22T21:05:51;14.25;;;9.43;;
27895;SDS011;15241;48.374;10.876;2022-07-22T21:10:50;20.20;;;16.48;;
27895;SDS011;15241;48.374;10.876;2022-07-22T21:15:49;11.70;;;10.30;;
27895;SDS011;15241;48.374;10.876;2022-07-22T21:20:48;13.25;;;9.35;;
27895;SDS011;15241;48.374;10.876;2022-07-22T21:25:47;14.07;;;8.88;;
27895;SDS011;15241;48.374;10.876;2022-07-22T21:30:46;9.88;;;8.70;;
27895;SDS011;15241;48.374;10.876;2022-07-22T21:35:45;11.90;;;9.53;;
27895;SDS011;15241;48.374;10.876;2022-07-22T21:40:44;20.77;;;9.28;;
27895;SDS011;15241;48.374;10.876;2022-07-22T21:45:43;10.18;;;8.60;;
27895;SDS011;15241;48.374;10.876;2022-07-22T21:50:43;11.30;;;9.28;;
27895;SDS011;15241;48.374;10.876;2022-07-22T21:55:42;12.93;;;10.03;;
27895;SDS011;15241;48.374;10.876;2022-07-22T22:00:41;10.93;;;9.35;;
27895;SDS011;15241;48.374;10.876;2022-07-22T22:05:40;9.90;;;8.93;;
27895;SDS011;15241;48.374;10.876;2022-07-22T22:10:39;20.00;;;9.13;;
27895;SDS011;15241;48.374;10.876;2022-07-22T22:15:38;19.65;;;16.75;;
27895;SDS011;15241;48.374;10.876;2022-07-22T22:20:37;14.78;;;12.43;;
27895;SDS011;15241;48.374;10.876;2022-07-22T22:25:36;10.58;;;9.45;;
27895;SDS011;15241;48.374;10.876;2022-07-22T22:30:35;13.43;;;9.43;;
27895;SDS011;15241;48.374;10.876;2022-07-22T22:35:34;12.40;;;9.75;;
27895;SDS011;15241;48.374;10.876;2022-07-22T22:40:33;10.25;;;9.20;;
27895;SDS011;15241;48.374;10.876;2022-07-22T22:45:32;10.20;;;9.10;;
27895;SDS011;15241;48.374;10.876;2022-07-22T22:50:31;12.75;;;9.43;;
27895;SDS011;15241;48.374;10.876;2022-07-22T22:55:30;11.03;;;9.20;;
27895;SDS011;15241;48.374;10.876;2022-07-22T23:00:28;11.22;;;8.98;;
27895;SDS011;15241;48.374;10.876;2022-07-22T23:05:27;9.55;;;8.60;;
27895;SDS011;15241;48.374;10.876;2022-07-22T23:10:26;11.00;;;8.70;;
27895;SDS011;15241;48.374;10.876;2022-07-22T23:15:28;13.22;;;9.68;;
27895;SDS011;15241;48.374;10.876;2022-07-22T23:20:27;9.60;;;7.92;;
27895;SDS011;15241;48.374;10.876;2022-07-22T23:25:25;11.00;;;8.25;;
27895;SDS011;15241;48.374;10.876;2022-07-22T23:30:24;11.68;;;8.38;;
27895;SDS011;15241;48.374;10.876;2022-07-22T23:35:23;8.90;;;8.00;;
27895;SDS011;15241;48.374;10.876;2022-07-22T23:40:22;10.45;;;8.35;;
27895;SDS011;15241;48.374;10.876;2022-07-22T23:45:21;9.75;;;8.18;;
27895;SDS011;15241;48.374;10.876;2022-07-22T23:50:22;10.70;;;8.50;;
27895;SDS011;15241;48.374;10.876;2022-07-22T23:55:21;13.43;;;8.13;;
